sensor_id;sensor_type;location;lat;lon;timestamp;temperature;humidity
72128;DHT22;60000;51.030;7.024;2022-12-07T00:00:48;4.83;94.24
72128;DHT22;60000;51.030;7.024;2022-12-07T00:03:13;4.84;94.20
72128;DHT22;60000;51.030;7.024;2022-12-07T00:05:39;4.83;94.21
72128;DHT22;60000;51.030;7.024;2022-12-07T00:08:04;4.86;94.17
72128;DHT22;60000;51.030;7.024;2022-12-07T00:10:29;4.86;94.05
72128;DHT22;60000;51.030;7.024;2022-12-07T00:12:55;4.89;94.03
72128;DHT22;60000;51.030;7.024;2022-12-07T00:15:20;4.87;94.10
72128;DHT22;60000;51.030;7.024;2022-12-07T00:17:45;4.84;94.13
72128;DHT22;60000;51.030;7.024;2022-12-07T00:20:11;4.89;94.12
72128;DHT22;60000;51.030;7.024;2022-12-07T00:22:36;4.87;94.05
72128;DHT22;60000;51.030;7.024;2022-12-07T00:25:01;4.87;94.15
72128;DHT22;60000;51.030;7.024;2022-12-07T00:27:27;4.90;94.18
72128;DHT22;60000;51.030;7.024;2022-12-07T00:29:52;4.86;94.16
72128;DHT22;60000;51.030;7.024;2022-12-07T00:32:18;4.86;94.18
72128;DHT22;60000;51.030;7.024;2022-12-07T00:34:43;4.87;94.21
72128;DHT22;60000;51.030;7.024;2022-12-07T00:37:08;4.89;94.26
72128;DHT22;60000;51.030;7.024;2022-12-07T00:39:33;4.84;94.25
72128;DHT22;60000;51.030;7.024;2022-12-07T00:41:59;4.87;94.25
72128;DHT22;60000;51.030;7.024;2022-12-07T00:44:24;4.89;94.28
72128;DHT22;60000;51.030;7.024;2022-12-07T00:46:49;4.89;94.28
72128;DHT22;60000;51.030;7.024;2022-12-07T00:49:15;4.90;94.29
72128;DHT22;60000;51.030;7.024;2022-12-07T00:51:40;4.89;94.26
72128;DHT22;60000;51.030;7.024;2022-12-07T00:54:05;4.89;94.16
72128;DHT22;60000;51.030;7.024;2022-12-07T00:56:31;4.92;94.13
72128;DHT22;60000;51.030;7.024;2022-12-07T00:58:58;4.90;93.96
72128;DHT22;60000;51.030;7.024;2022-12-07T01:01:26;4.90;93.94
72128;DHT22;60000;51.030;7.024;2022-12-07T01:03:52;4.89;93.96
72128;DHT22;60000;51.030;7.024;2022-12-07T01:06:18;4.86;93.95
72128;DHT22;60000;51.030;7.024;2022-12-07T01:08:44;4.87;93.96
72128;DHT22;60000;51.030;7.024;2022-12-07T01:11:13;4.86;93.96
72128;DHT22;60000;51.030;7.024;2022-12-07T01:13:38;4.84;94.00
72128;DHT22;60000;51.030;7.024;2022-12-07T01:16:05;4.83;94.03
72128;DHT22;60000;51.030;7.024;2022-12-07T01:18:34;4.82;93.98
72128;DHT22;60000;51.030;7.024;2022-12-07T01:21:06;4.82;93.99
72128;DHT22;60000;51.030;7.024;2022-12-07T01:23:34;4.80;94.07
72128;DHT22;60000;51.030;7.024;2022-12-07T01:26:01;4.82;94.04
72128;DHT22;60000;51.030;7.024;2022-12-07T01:28:28;4.80;94.06
72128;DHT22;60000;51.030;7.024;2022-12-07T01:31:02;4.83;94.07
72128;DHT22;60000;51.030;7.024;2022-12-07T01:33:29;4.79;94.03
72128;DHT22;60000;51.030;7.024;2022-12-07T01:36:01;4.80;94.07
72128;DHT22;60000;51.030;7.024;2022-12-07T01:38:26;4.80;93.93
72128;DHT22;60000;51.030;7.024;2022-12-07T01:40:55;4.79;93.98
72128;DHT22;60000;51.030;7.024;2022-12-07T01:43:22;4.80;94.00
72128;DHT22;60000;51.030;7.024;2022-12-07T01:45:48;4.82;93.94
72128;DHT22;60000;51.030;7.024;2022-12-07T01:48:16;4.80;94.01
72128;DHT22;60000;51.030;7.024;2022-12-07T01:50:45;4.82;94.05
72128;DHT22;60000;51.030;7.024;2022-12-07T01:53:14;4.80;94.07
72128;DHT22;60000;51.030;7.024;2022-12-07T01:55:42;4.80;94.16
72128;DHT22;60000;51.030;7.024;2022-12-07T01:58:09;4.80;94.16
72128;DHT22;60000;51.030;7.024;2022-12-07T02:00:35;4.82;94.24
72128;DHT22;60000;51.030;7.024;2022-12-07T02:03:07;4.77;94.20
72128;DHT22;60000;51.030;7.024;2022-12-07T02:05:35;4.82;94.27
72128;DHT22;60000;51.030;7.024;2022-12-07T02:08:02;4.80;94.21
72128;DHT22;60000;51.030;7.024;2022-12-07T02:10:30;4.79;94.26
72128;DHT22;60000;51.030;7.024;2022-12-07T02:12:58;4.80;94.32
72128;DHT22;60000;51.030;7.024;2022-12-07T02:15:33;4.80;94.34
72128;DHT22;60000;51.030;7.024;2022-12-07T02:18:09;4.80;94.33
72128;DHT22;60000;51.030;7.024;2022-12-07T02:20:49;4.80;94.36
72128;DHT22;60000;51.030;7.024;2022-12-07T02:31:19;4.79;94.40
72128;DHT22;60000;51.030;7.024;2022-12-07T02:33:50;4.80;94.40
72128;DHT22;60000;51.030;7.024;2022-12-07T02:36:26;4.82;94.40
72128;DHT22;60000;51.030;7.024;2022-12-07T02:39:02;4.76;94.45
72128;DHT22;60000;51.030;7.024;2022-12-07T02:41:34;4.80;94.43
72128;DHT22;60000;51.030;7.024;2022-12-07T02:44:04;4.79;94.48
72128;DHT22;60000;51.030;7.024;2022-12-07T02:46:33;4.77;94.49
72128;DHT22;60000;51.030;7.024;2022-12-07T02:49:00;4.79;94.47
72128;DHT22;60000;51.030;7.024;2022-12-07T02:51:30;4.77;94.45
72128;DHT22;60000;51.030;7.024;2022-12-07T02:53:56;4.79;94.50
72128;DHT22;60000;51.030;7.024;2022-12-07T02:56:26;4.76;94.51
72128;DHT22;60000;51.030;7.024;2022-12-07T03:06:42;4.75;94.49
72128;DHT22;60000;51.030;7.024;2022-12-07T03:09:13;4.77;94.55
72128;DHT22;60000;51.030;7.024;2022-12-07T03:12:08;4.77;94.55
72128;DHT22;60000;51.030;7.024;2022-12-07T03:14:41;4.79;94.55
72128;DHT22;60000;51.030;7.024;2022-12-07T03:17:18;4.76;94.58
72128;DHT22;60000;51.030;7.024;2022-12-07T03:19:45;4.76;94.55
72128;DHT22;60000;51.030;7.024;2022-12-07T03:22:12;4.76;94.55
72128;DHT22;60000;51.030;7.024;2022-12-07T03:24:55;4.77;94.58
72128;DHT22;60000;51.030;7.024;2022-12-07T03:28:11;4.77;94.59
72128;DHT22;60000;51.030;7.024;2022-12-07T03:30:13;4.82;94.57
72128;DHT22;60000;51.030;7.024;2022-12-07T03:32:53;4.79;94.57
72128;DHT22;60000;51.030;7.024;2022-12-07T03:35:31;4.79;94.56
72128;DHT22;60000;51.030;7.024;2022-12-07T03:38:21;4.79;94.51
72128;DHT22;60000;51.030;7.024;2022-12-07T03:41:01;4.79;94.52
72128;DHT22;60000;51.030;7.024;2022-12-07T03:43:30;4.80;94.54
72128;DHT22;60000;51.030;7.024;2022-12-07T03:48:37;4.76;94.51
72128;DHT22;60000;51.030;7.024;2022-12-07T03:51:51;4.79;94.52
72128;DHT22;60000;51.030;7.024;2022-12-07T03:56:50;4.79;94.48
72128;DHT22;60000;51.030;7.024;2022-12-07T03:59:17;4.77;94.47
72128;DHT22;60000;51.030;7.024;2022-12-07T04:01:44;4.79;94.49
72128;DHT22;60000;51.030;7.024;2022-12-07T04:04:10;4.77;94.50
72128;DHT22;60000;51.030;7.024;2022-12-07T04:06:35;4.77;94.49
72128;DHT22;60000;51.030;7.024;2022-12-07T04:09:00;4.76;94.50
72128;DHT22;60000;51.030;7.024;2022-12-07T04:11:26;4.77;94.33
72128;DHT22;60000;51.030;7.024;2022-12-07T04:13:51;4.75;94.38
72128;DHT22;60000;51.030;7.024;2022-12-07T04:16:35;4.75;94.36
72128;DHT22;60000;51.030;7.024;2022-12-07T04:19:00;4.73;94.38
72128;DHT22;60000;51.030;7.024;2022-12-07T04:21:25;4.72;94.39
72128;DHT22;60000;51.030;7.024;2022-12-07T04:23:51;4.69;94.38
72128;DHT22;60000;51.030;7.024;2022-12-07T04:26:16;4.71;94.34
72128;DHT22;60000;51.030;7.024;2022-12-07T04:28:41;4.72;94.22
72128;DHT22;60000;51.030;7.024;2022-12-07T04:31:07;4.68;94.30
72128;DHT22;60000;51.030;7.024;2022-12-07T04:33:32;4.68;94.31
72128;DHT22;60000;51.030;7.024;2022-12-07T04:35:57;4.71;94.35
72128;DHT22;60000;51.030;7.024;2022-12-07T04:38:23;4.69;94.36
72128;DHT22;60000;51.030;7.024;2022-12-07T04:40:48;4.66;94.32
72128;DHT22;60000;51.030;7.024;2022-12-07T04:43:13;4.68;94.39
72128;DHT22;60000;51.030;7.024;2022-12-07T04:45:38;4.66;94.35
72128;DHT22;60000;51.030;7.024;2022-12-07T04:48:04;4.63;94.40
72128;DHT22;60000;51.030;7.024;2022-12-07T04:50:29;4.66;94.31
72128;DHT22;60000;51.030;7.024;2022-12-07T04:52:54;4.65;94.37
72128;DHT22;60000;51.030;7.024;2022-12-07T04:55:20;4.63;94.37
72128;DHT22;60000;51.030;7.024;2022-12-07T04:57:45;4.62;94.28
72128;DHT22;60000;51.030;7.024;2022-12-07T05:00:10;4.61;94.29
72128;DHT22;60000;51.030;7.024;2022-12-07T05:02:36;4.63;94.29
72128;DHT22;60000;51.030;7.024;2022-12-07T05:05:01;4.62;94.32
72128;DHT22;60000;51.030;7.024;2022-12-07T05:07:27;4.62;94.26
72128;DHT22;60000;51.030;7.024;2022-12-07T05:09:52;4.59;94.31
72128;DHT22;60000;51.030;7.024;2022-12-07T05:12:17;4.61;94.33
72128;DHT22;60000;51.030;7.024;2022-12-07T05:14:42;4.61;94.34
72128;DHT22;60000;51.030;7.024;2022-12-07T05:17:08;4.59;94.34
72128;DHT22;60000;51.030;7.024;2022-12-07T05:19:33;4.59;94.29
72128;DHT22;60000;51.030;7.024;2022-12-07T05:21:58;4.58;94.29
72128;DHT22;60000;51.030;7.024;2022-12-07T05:24:23;4.55;94.28
72128;DHT22;60000;51.030;7.024;2022-12-07T05:26:49;4.55;94.33
72128;DHT22;60000;51.030;7.024;2022-12-07T05:29:16;4.55;94.34
72128;DHT22;60000;51.030;7.024;2022-12-07T05:31:42;4.56;94.37
72128;DHT22;60000;51.030;7.024;2022-12-07T05:34:07;4.55;94.37
72128;DHT22;60000;51.030;7.024;2022-12-07T05:36:33;4.56;94.37
72128;DHT22;60000;51.030;7.024;2022-12-07T05:38:58;4.55;94.37
72128;DHT22;60000;51.030;7.024;2022-12-07T05:41:24;4.56;94.44
72128;DHT22;60000;51.030;7.024;2022-12-07T05:44:08;4.55;94.44
72128;DHT22;60000;51.030;7.024;2022-12-07T05:46:34;4.55;94.45
72128;DHT22;60000;51.030;7.024;2022-12-07T05:48:59;4.56;94.50
72128;DHT22;60000;51.030;7.024;2022-12-07T05:51:25;4.55;94.50
72128;DHT22;60000;51.030;7.024;2022-12-07T05:53:50;4.56;94.44
72128;DHT22;60000;51.030;7.024;2022-12-07T05:56:15;4.54;94.45
72128;DHT22;60000;51.030;7.024;2022-12-07T05:58:41;4.54;94.45
72128;DHT22;60000;51.030;7.024;2022-12-07T06:01:25;4.54;94.38
72128;DHT22;60000;51.030;7.024;2022-12-07T06:03:50;4.52;94.40
72128;DHT22;60000;51.030;7.024;2022-12-07T06:06:15;4.54;94.32
72128;DHT22;60000;51.030;7.024;2022-12-07T06:08:41;4.54;94.34
72128;DHT22;60000;51.030;7.024;2022-12-07T06:11:06;4.49;94.25
72128;DHT22;60000;51.030;7.024;2022-12-07T06:13:50;4.45;94.05
72128;DHT22;60000;51.030;7.024;2022-12-07T06:16:15;4.41;93.91
72128;DHT22;60000;51.030;7.024;2022-12-07T06:18:41;4.37;93.85
72128;DHT22;60000;51.030;7.024;2022-12-07T06:21:06;4.38;93.83
72128;DHT22;60000;51.030;7.024;2022-12-07T06:23:31;4.32;93.85
72128;DHT22;60000;51.030;7.024;2022-12-07T06:25:57;4.30;93.92
72128;DHT22;60000;51.030;7.024;2022-12-07T06:28:22;4.28;93.95
72128;DHT22;60000;51.030;7.024;2022-12-07T06:30:47;4.28;94.05
72128;DHT22;60000;51.030;7.024;2022-12-07T06:33:12;4.27;94.11
72128;DHT22;60000;51.030;7.024;2022-12-07T06:35:38;4.27;94.15
72128;DHT22;60000;51.030;7.024;2022-12-07T06:38:03;4.25;94.21
72128;DHT22;60000;51.030;7.024;2022-12-07T06:40:28;4.31;94.18
72128;DHT22;60000;51.030;7.024;2022-12-07T06:42:54;4.28;94.23
72128;DHT22;60000;51.030;7.024;2022-12-07T06:45:19;4.27;94.19
72128;DHT22;60000;51.030;7.024;2022-12-07T06:47:44;4.30;94.21
72128;DHT22;60000;51.030;7.024;2022-12-07T06:50:09;4.28;94.24
72128;DHT22;60000;51.030;7.024;2022-12-07T06:52:35;4.30;94.26
72128;DHT22;60000;51.030;7.024;2022-12-07T06:55:00;4.28;94.25
72128;DHT22;60000;51.030;7.024;2022-12-07T06:57:26;4.31;94.25
72128;DHT22;60000;51.030;7.024;2022-12-07T06:59:51;4.28;94.23
72128;DHT22;60000;51.030;7.024;2022-12-07T07:02:16;4.24;94.25
72128;DHT22;60000;51.030;7.024;2022-12-07T07:04:42;4.21;94.13
72128;DHT22;60000;51.030;7.024;2022-12-07T07:07:07;4.20;94.16
72128;DHT22;60000;51.030;7.024;2022-12-07T07:09:33;4.15;94.20
72128;DHT22;60000;51.030;7.024;2022-12-07T07:11:58;4.17;94.32
72128;DHT22;60000;51.030;7.024;2022-12-07T07:14:23;4.15;94.55
72128;DHT22;60000;51.030;7.024;2022-12-07T07:16:48;4.18;94.68
72128;DHT22;60000;51.030;7.024;2022-12-07T07:19:14;4.17;94.69
72128;DHT22;60000;51.030;7.024;2022-12-07T07:21:39;4.20;94.71
72128;DHT22;60000;51.030;7.024;2022-12-07T07:24:05;4.17;94.76
72128;DHT22;60000;51.030;7.024;2022-12-07T07:26:30;4.17;94.72
72128;DHT22;60000;51.030;7.024;2022-12-07T07:28:55;4.20;94.77
72128;DHT22;60000;51.030;7.024;2022-12-07T07:31:21;4.17;94.83
72128;DHT22;60000;51.030;7.024;2022-12-07T07:33:47;4.18;94.90
72128;DHT22;60000;51.030;7.024;2022-12-07T07:36:12;4.20;94.93
72128;DHT22;60000;51.030;7.024;2022-12-07T07:38:38;4.20;95.01
72128;DHT22;60000;51.030;7.024;2022-12-07T07:41:03;4.20;94.98
72128;DHT22;60000;51.030;7.024;2022-12-07T07:43:28;4.21;95.00
72128;DHT22;60000;51.030;7.024;2022-12-07T07:45:54;4.20;95.06
72128;DHT22;60000;51.030;7.024;2022-12-07T07:48:19;4.21;95.05
72128;DHT22;60000;51.030;7.024;2022-12-07T07:50:44;4.24;95.09
72128;DHT22;60000;51.030;7.024;2022-12-07T07:53:10;4.22;95.16
72128;DHT22;60000;51.030;7.024;2022-12-07T07:55:35;4.25;95.13
72128;DHT22;60000;51.030;7.024;2022-12-07T07:58:00;4.30;95.12
72128;DHT22;60000;51.030;7.024;2022-12-07T08:00:26;4.32;95.05
72128;DHT22;60000;51.030;7.024;2022-12-07T08:02:51;4.34;95.05
72128;DHT22;60000;51.030;7.024;2022-12-07T08:05:16;4.35;94.99
72128;DHT22;60000;51.030;7.024;2022-12-07T08:07:42;4.35;94.92
72128;DHT22;60000;51.030;7.024;2022-12-07T08:10:10;4.38;94.80
72128;DHT22;60000;51.030;7.024;2022-12-07T08:12:41;4.40;94.74
72128;DHT22;60000;51.030;7.024;2022-12-07T08:15:27;4.41;94.71
72128;DHT22;60000;51.030;7.024;2022-12-07T08:17:53;4.45;94.60
72128;DHT22;60000;51.030;7.024;2022-12-07T08:20:18;4.42;94.56
72128;DHT22;60000;51.030;7.024;2022-12-07T08:22:44;4.45;94.47
72128;DHT22;60000;51.030;7.024;2022-12-07T08:25:09;4.45;94.32
72128;DHT22;60000;51.030;7.024;2022-12-07T08:27:34;4.45;94.27
72128;DHT22;60000;51.030;7.024;2022-12-07T08:30:00;4.45;94.33
72128;DHT22;60000;51.030;7.024;2022-12-07T08:32:25;4.49;94.34
72128;DHT22;60000;51.030;7.024;2022-12-07T08:34:52;4.51;94.27
72128;DHT22;60000;51.030;7.024;2022-12-07T08:37:17;4.52;94.20
72128;DHT22;60000;51.030;7.024;2022-12-07T08:39:43;4.56;94.16
72128;DHT22;60000;51.030;7.024;2022-12-07T08:42:08;4.59;94.09
72128;DHT22;60000;51.030;7.024;2022-12-07T08:44:33;4.56;93.87
72128;DHT22;60000;51.030;7.024;2022-12-07T08:47:02;4.63;93.89
72128;DHT22;60000;51.030;7.024;2022-12-07T08:49:55;4.66;93.89
72128;DHT22;60000;51.030;7.024;2022-12-07T08:52:21;4.69;93.70
72128;DHT22;60000;51.030;7.024;2022-12-07T08:54:46;4.71;93.64
72128;DHT22;60000;51.030;7.024;2022-12-07T08:57:12;4.69;93.50
72128;DHT22;60000;51.030;7.024;2022-12-07T08:59:37;4.71;93.52
72128;DHT22;60000;51.030;7.024;2022-12-07T09:02:04;4.76;93.69
72128;DHT22;60000;51.030;7.024;2022-12-07T09:04:30;4.77;93.58
72128;DHT22;60000;51.030;7.024;2022-12-07T09:06:55;4.80;93.37
72128;DHT22;60000;51.030;7.024;2022-12-07T09:09:21;4.79;93.16
72128;DHT22;60000;51.030;7.024;2022-12-07T09:11:46;4.82;93.22
72128;DHT22;60000;51.030;7.024;2022-12-07T09:14:12;4.84;93.25
72128;DHT22;60000;51.030;7.024;2022-12-07T09:16:38;4.84;93.11
72128;DHT22;60000;51.030;7.024;2022-12-07T09:19:03;4.90;92.92
72128;DHT22;60000;51.030;7.024;2022-12-07T09:21:29;4.89;92.88
72128;DHT22;60000;51.030;7.024;2022-12-07T09:23:54;4.90;92.62
72128;DHT22;60000;51.030;7.024;2022-12-07T09:26:19;4.92;92.51
72128;DHT22;60000;51.030;7.024;2022-12-07T09:28:45;4.92;92.67
72128;DHT22;60000;51.030;7.024;2022-12-07T09:31:10;4.94;92.54
72128;DHT22;60000;51.030;7.024;2022-12-07T09:33:35;4.96;92.44
72128;DHT22;60000;51.030;7.024;2022-12-07T09:36:01;4.94;92.44
72128;DHT22;60000;51.030;7.024;2022-12-07T09:38:28;4.99;92.55
72128;DHT22;60000;51.030;7.024;2022-12-07T09:40:55;5.01;92.36
72128;DHT22;60000;51.030;7.024;2022-12-07T09:43:23;5.09;92.24
72128;DHT22;60000;51.030;7.024;2022-12-07T09:45:51;5.13;92.21
72128;DHT22;60000;51.030;7.024;2022-12-07T09:48:21;5.20;92.25
72128;DHT22;60000;51.030;7.024;2022-12-07T09:50:48;5.26;92.16
72128;DHT22;60000;51.030;7.024;2022-12-07T09:53:20;5.28;91.82
72128;DHT22;60000;51.030;7.024;2022-12-07T09:55:47;5.33;91.72
72128;DHT22;60000;51.030;7.024;2022-12-07T09:58:25;5.40;92.15
72128;DHT22;60000;51.030;7.024;2022-12-07T10:03:38;5.50;91.70
72128;DHT22;60000;51.030;7.024;2022-12-07T10:06:04;5.56;91.66
72128;DHT22;60000;51.030;7.024;2022-12-07T10:08:31;5.56;91.37
72128;DHT22;60000;51.030;7.024;2022-12-07T10:10:57;5.59;91.14
72128;DHT22;60000;51.030;7.024;2022-12-07T10:13:35;5.65;91.20
72128;DHT22;60000;51.030;7.024;2022-12-07T10:16:00;5.64;90.95
72128;DHT22;60000;51.030;7.024;2022-12-07T10:18:34;5.64;90.76
72128;DHT22;60000;51.030;7.024;2022-12-07T10:23:36;5.65;90.43
72128;DHT22;60000;51.030;7.024;2022-12-07T10:28:52;5.71;90.66
72128;DHT22;60000;51.030;7.024;2022-12-07T10:31:20;5.72;90.53
72128;DHT22;60000;51.030;7.024;2022-12-07T10:33:58;5.71;90.25
72128;DHT22;60000;51.030;7.024;2022-12-07T10:36:35;5.68;90.05
72128;DHT22;60000;51.030;7.024;2022-12-07T10:39:03;5.66;90.07
72128;DHT22;60000;51.030;7.024;2022-12-07T10:41:34;5.68;90.21
72128;DHT22;60000;51.030;7.024;2022-12-07T10:43:59;5.75;90.00
72128;DHT22;60000;51.030;7.024;2022-12-07T10:46:43;5.81;89.97
72128;DHT22;60000;51.030;7.024;2022-12-07T11:00:17;6.07;88.85
72128;DHT22;60000;51.030;7.024;2022-12-07T11:02:54;6.06;88.35
72128;DHT22;60000;51.030;7.024;2022-12-07T11:05:39;6.09;88.40
72128;DHT22;60000;51.030;7.024;2022-12-07T11:08:44;6.13;88.16
72128;DHT22;60000;51.030;7.024;2022-12-07T11:11:33;6.16;87.69
72128;DHT22;60000;51.030;7.024;2022-12-07T11:14:44;6.13;86.82
72128;DHT22;60000;51.030;7.024;2022-12-07T11:20:18;6.22;87.51
72128;DHT22;60000;51.030;7.024;2022-12-07T11:22:57;6.19;87.17
72128;DHT22;60000;51.030;7.024;2022-12-07T11:25:49;6.19;87.09
72128;DHT22;60000;51.030;7.024;2022-12-07T11:28:43;6.17;86.88
72128;DHT22;60000;51.030;7.024;2022-12-07T11:31:20;6.17;86.99
72128;DHT22;60000;51.030;7.024;2022-12-07T11:36:40;6.14;87.16
72128;DHT22;60000;51.030;7.024;2022-12-07T11:41:45;6.03;87.60
72128;DHT22;60000;51.030;7.024;2022-12-07T11:44:37;6.05;87.53
72128;DHT22;60000;51.030;7.024;2022-12-07T11:47:10;6.07;87.64
72128;DHT22;60000;51.030;7.024;2022-12-07T11:49:51;6.13;87.98
72128;DHT22;60000;51.030;7.024;2022-12-07T11:58:18;6.38;87.65
72128;DHT22;60000;51.030;7.024;2022-12-07T12:00:48;6.43;87.62
72128;DHT22;60000;51.030;7.024;2022-12-07T12:03:23;6.41;86.84
72128;DHT22;60000;51.030;7.024;2022-12-07T12:05:55;6.37;86.88
72128;DHT22;60000;51.030;7.024;2022-12-07T12:08:30;6.36;86.68
72128;DHT22;60000;51.030;7.024;2022-12-07T12:19:27;6.50;86.64
72128;DHT22;60000;51.030;7.024;2022-12-07T12:22:17;6.48;85.32
72128;DHT22;60000;51.030;7.024;2022-12-07T12:24:46;6.48;85.54
72128;DHT22;60000;51.030;7.024;2022-12-07T12:27:25;6.50;85.43
72128;DHT22;60000;51.030;7.024;2022-12-07T12:29:56;6.47;84.87
72128;DHT22;60000;51.030;7.024;2022-12-07T12:32:39;6.44;85.20
72128;DHT22;60000;51.030;7.024;2022-12-07T12:35:36;6.48;85.58
72128;DHT22;60000;51.030;7.024;2022-12-07T12:38:28;6.50;85.63
72128;DHT22;60000;51.030;7.024;2022-12-07T12:40:55;6.60;85.64
72128;DHT22;60000;51.030;7.024;2022-12-07T12:43:40;6.67;85.41
72128;DHT22;60000;51.030;7.024;2022-12-07T12:46:35;6.71;85.33
72128;DHT22;60000;51.030;7.024;2022-12-07T12:54:19;6.65;84.34
72128;DHT22;60000;51.030;7.024;2022-12-07T12:57:11;6.71;83.70
72128;DHT22;60000;51.030;7.024;2022-12-07T12:59:57;6.82;84.04
72128;DHT22;60000;51.030;7.024;2022-12-07T13:02:38;6.92;83.30
72128;DHT22;60000;51.030;7.024;2022-12-07T13:13:31;7.16;81.82
72128;DHT22;60000;51.030;7.024;2022-12-07T13:26:22;7.05;81.91
72128;DHT22;60000;51.030;7.024;2022-12-07T13:28:49;6.98;81.62
72128;DHT22;60000;51.030;7.024;2022-12-07T13:33:49;6.75;81.48
72128;DHT22;60000;51.030;7.024;2022-12-07T13:36:43;6.70;81.52
72128;DHT22;60000;51.030;7.024;2022-12-07T13:41:43;6.60;81.87
72128;DHT22;60000;51.030;7.024;2022-12-07T13:44:14;6.51;82.28
72128;DHT22;60000;51.030;7.024;2022-12-07T13:47:09;6.44;82.12
72128;DHT22;60000;51.030;7.024;2022-12-07T13:49:47;6.36;82.40
72128;DHT22;60000;51.030;7.024;2022-12-07T13:52:18;6.30;82.56
72128;DHT22;60000;51.030;7.024;2022-12-07T13:57:30;6.24;83.44
72128;DHT22;60000;51.030;7.024;2022-12-07T13:59:57;6.22;83.35
72128;DHT22;60000;51.030;7.024;2022-12-07T14:02:28;6.17;83.43
72128;DHT22;60000;51.030;7.024;2022-12-07T14:05:22;6.16;83.57
72128;DHT22;60000;51.030;7.024;2022-12-07T14:07:59;6.09;83.87
72128;DHT22;60000;51.030;7.024;2022-12-07T14:12:52;6.09;84.09
72128;DHT22;60000;51.030;7.024;2022-12-07T14:15:23;6.06;84.17
72128;DHT22;60000;51.030;7.024;2022-12-07T14:17:50;6.07;84.32
72128;DHT22;60000;51.030;7.024;2022-12-07T14:20:38;6.07;84.21
72128;DHT22;60000;51.030;7.024;2022-12-07T14:23:06;6.05;84.46
72128;DHT22;60000;51.030;7.024;2022-12-07T14:25:49;6.03;84.70
72128;DHT22;60000;51.030;7.024;2022-12-07T14:28:45;6.03;84.74
72128;DHT22;60000;51.030;7.024;2022-12-07T14:31:13;6.02;84.64
72128;DHT22;60000;51.030;7.024;2022-12-07T14:33:42;6.06;84.72
72128;DHT22;60000;51.030;7.024;2022-12-07T14:36:14;6.07;84.98
72128;DHT22;60000;51.030;7.024;2022-12-07T14:38:40;6.03;84.91
72128;DHT22;60000;51.030;7.024;2022-12-07T14:41:12;6.03;84.98
72128;DHT22;60000;51.030;7.024;2022-12-07T14:43:56;6.03;84.89
72128;DHT22;60000;51.030;7.024;2022-12-07T14:46:22;6.05;84.82
72128;DHT22;60000;51.030;7.024;2022-12-07T14:48:47;6.02;84.87
72128;DHT22;60000;51.030;7.024;2022-12-07T14:51:13;5.99;84.90
72128;DHT22;60000;51.030;7.024;2022-12-07T14:53:41;5.93;85.02
72128;DHT22;60000;51.030;7.024;2022-12-07T14:56:07;5.93;85.11
72128;DHT22;60000;51.030;7.024;2022-12-07T14:58:33;5.91;85.34
72128;DHT22;60000;51.030;7.024;2022-12-07T15:00:59;5.88;85.53
72128;DHT22;60000;51.030;7.024;2022-12-07T15:03:24;5.88;85.75
72128;DHT22;60000;51.030;7.024;2022-12-07T15:05:50;5.91;85.89
72128;DHT22;60000;51.030;7.024;2022-12-07T15:08:15;5.88;85.99
72128;DHT22;60000;51.030;7.024;2022-12-07T15:10:40;5.86;86.02
72128;DHT22;60000;51.030;7.024;2022-12-07T15:13:07;5.88;86.09
72128;DHT22;60000;51.030;7.024;2022-12-07T15:15:52;5.86;86.20
72128;DHT22;60000;51.030;7.024;2022-12-07T15:18:18;5.86;86.30
72128;DHT22;60000;51.030;7.024;2022-12-07T15:20:44;5.85;86.45
72128;DHT22;60000;51.030;7.024;2022-12-07T15:23:10;5.85;86.52
72128;DHT22;60000;51.030;7.024;2022-12-07T15:25:36;5.83;86.83
72128;DHT22;60000;51.030;7.024;2022-12-07T15:28:02;5.83;87.21
72128;DHT22;60000;51.030;7.024;2022-12-07T15:30:28;5.81;87.27
72128;DHT22;60000;51.030;7.024;2022-12-07T15:32:53;5.81;87.25
72128;DHT22;60000;51.030;7.024;2022-12-07T15:35:20;5.81;87.32
72128;DHT22;60000;51.030;7.024;2022-12-07T15:37:46;5.76;87.25
72128;DHT22;60000;51.030;7.024;2022-12-07T15:40:12;5.73;87.03
72128;DHT22;60000;51.030;7.024;2022-12-07T15:42:37;5.66;85.48
72128;DHT22;60000;51.030;7.024;2022-12-07T15:45:04;5.54;84.59
72128;DHT22;60000;51.030;7.024;2022-12-07T15:47:50;5.41;84.64
72128;DHT22;60000;51.030;7.024;2022-12-07T15:50:16;5.35;84.82
72128;DHT22;60000;51.030;7.024;2022-12-07T15:52:42;5.31;85.16
72128;DHT22;60000;51.030;7.024;2022-12-07T15:55:09;5.27;85.40
72128;DHT22;60000;51.030;7.024;2022-12-07T15:57:35;5.27;85.51
72128;DHT22;60000;51.030;7.024;2022-12-07T16:00:05;5.26;85.87
72128;DHT22;60000;51.030;7.024;2022-12-07T16:02:31;5.20;85.87
72128;DHT22;60000;51.030;7.024;2022-12-07T16:04:56;5.23;85.89
72128;DHT22;60000;51.030;7.024;2022-12-07T16:07:22;5.26;85.90
72128;DHT22;60000;51.030;7.024;2022-12-07T16:09:47;5.21;85.99
72128;DHT22;60000;51.030;7.024;2022-12-07T16:12:14;5.20;85.95
72128;DHT22;60000;51.030;7.024;2022-12-07T16:14:40;5.19;86.39
72128;DHT22;60000;51.030;7.024;2022-12-07T16:17:06;5.14;86.43
72128;DHT22;60000;51.030;7.024;2022-12-07T16:19:32;5.16;86.74
72128;DHT22;60000;51.030;7.024;2022-12-07T16:21:58;5.12;86.81
72128;DHT22;60000;51.030;7.024;2022-12-07T16:24:24;5.17;87.22
72128;DHT22;60000;51.030;7.024;2022-12-07T16:26:49;5.16;87.48
72128;DHT22;60000;51.030;7.024;2022-12-07T16:29:15;5.16;87.78
72128;DHT22;60000;51.030;7.024;2022-12-07T16:31:42;5.20;87.64
72128;DHT22;60000;51.030;7.024;2022-12-07T16:34:08;5.16;87.93
72128;DHT22;60000;51.030;7.024;2022-12-07T16:36:34;5.14;88.01
72128;DHT22;60000;51.030;7.024;2022-12-07T16:38:59;5.17;87.87
72128;DHT22;60000;51.030;7.024;2022-12-07T16:41:25;5.16;87.82
72128;DHT22;60000;51.030;7.024;2022-12-07T16:43:50;5.13;87.81
72128;DHT22;60000;51.030;7.024;2022-12-07T16:46:16;5.13;87.83
72128;DHT22;60000;51.030;7.024;2022-12-07T16:48:42;5.12;87.78
72128;DHT22;60000;51.030;7.024;2022-12-07T16:51:11;5.07;87.84
72128;DHT22;60000;51.030;7.024;2022-12-07T16:53:38;5.07;87.82
72128;DHT22;60000;51.030;7.024;2022-12-07T16:56:05;5.09;87.93
72128;DHT22;60000;51.030;7.024;2022-12-07T16:58:34;5.10;87.92
72128;DHT22;60000;51.030;7.024;2022-12-07T17:01:08;5.10;87.88
72128;DHT22;60000;51.030;7.024;2022-12-07T17:03:34;5.10;88.01
72128;DHT22;60000;51.030;7.024;2022-12-07T17:05:59;5.12;88.08
72128;DHT22;60000;51.030;7.024;2022-12-07T17:08:24;5.09;88.16
72128;DHT22;60000;51.030;7.024;2022-12-07T17:10:49;5.09;88.15
72128;DHT22;60000;51.030;7.024;2022-12-07T17:13:15;5.10;88.18
72128;DHT22;60000;51.030;7.024;2022-12-07T17:16:04;5.13;88.01
72128;DHT22;60000;51.030;7.024;2022-12-07T17:18:34;5.14;88.04
72128;DHT22;60000;51.030;7.024;2022-12-07T17:21:04;5.12;88.02
72128;DHT22;60000;51.030;7.024;2022-12-07T17:23:31;5.12;88.05
72128;DHT22;60000;51.030;7.024;2022-12-07T17:26:03;5.13;88.06
72128;DHT22;60000;51.030;7.024;2022-12-07T17:28:29;5.14;88.18
72128;DHT22;60000;51.030;7.024;2022-12-07T17:30:55;5.12;88.29
72128;DHT22;60000;51.030;7.024;2022-12-07T17:33:20;5.09;88.29
72128;DHT22;60000;51.030;7.024;2022-12-07T17:35:46;5.06;88.36